サンクトペテルブルク の空港の天気 - METARとTAF

プルコヴォ空港(サンクトペテルブルグ) ( ULLI / LED ) - ロシア サンクトペテルブルク
飛行場実況気象(Metar)
観測時間09/30 08:00 MSK (09/30 05:00 UTC)
風向・風速東 3m/s
視程8000m
天気現象
全天を覆う雲 雲底高度 580m
気温12℃
湿度88%
気圧1021hPa
METARULLI 300500Z 08003MPS 050V110 8000 OVC019 12/10 Q1021 R10L/090060 NOSIG
過去の天気等 Google飛行場航空写真 Wunderground天気予報

過去48時間のMETAR

飛行場予報(TAF)
発表時間: 9/30 04:53 MSK (9/30 01:53 UTC)
予報対象時間: 30日6時 MSK ~ 1日6時 MSK
風向・風速東 3m/s
視程3100m
天気現象もや
全天の4割程度の雲 雲底高度 340m
全天の8割程度の雲 雲底高度 760m
30日6時 MSK ~ 30日9時 MSK に一時的に
風向・風速不定 1m/s
視程300m
天気現象部分霧
少しの雲 雲底高度 60m
30日9時 MSK から
風向・風速東北東 3m/s
視程10km以上
全天の4割程度の雲 雲底高度 340m
全天の8割程度の雲 雲底高度 760m
30日9時 MSK ~ 30日11時 MSK に一時的に
視程5000m
天気現象もや
全天の8割程度の雲 雲底高度 120m
30日21時 MSK ~ 1日6時 MSK に一時的に
視程3100m
天気現象もや
TAF ULLI 300153Z 3003/0103 10003MPS 3100 BR SCT011 BKN025
TEMPO 3003/3006 VRB01MPS 0300 PRFG FEW002
FM300600 07003MPS 9999 SCT011 BKN025
TEMPO 3006/3008 5000 BR BKN004
TEMPO 3018/0103 3100 BR